createdAt,value
2022-11-27T00:02:28.782Z,3.00
2022-11-27T00:07:33.483Z,2.83
2022-11-27T00:12:38.220Z,3.78
2022-11-27T00:17:41.954Z,6.60
2022-11-27T00:22:45.294Z,4.03
2022-11-27T00:27:49.408Z,3.38
2022-11-27T00:32:53.028Z,5.05
2022-11-27T00:37:56.279Z,4.43
2022-11-27T00:42:59.647Z,5.72
2022-11-27T00:48:03.200Z,3.97
2022-11-27T00:53:06.585Z,5.10
2022-11-27T01:08:16.201Z,7.55
2022-11-27T01:13:20.410Z,5.80
2022-11-27T01:18:24.422Z,4.00
2022-11-27T01:28:32.391Z,6.97
2022-11-27T01:33:36.165Z,2.72
2022-11-27T01:38:39.675Z,3.17
2022-11-27T01:44:00.570Z,3.25
2022-11-27T01:49:29.525Z,6.30
2022-11-27T01:54:43.665Z,8.27
2022-11-27T01:59:49.374Z,6.43
2022-11-27T02:04:53.879Z,4.45
2022-11-27T02:09:57.286Z,2.42
2022-11-27T02:15:18.624Z,4.65
2022-11-27T02:20:41.539Z,1.48
2022-11-27T02:26:05.805Z,2.47
2022-11-27T02:31:26.073Z,17.00
2022-11-27T02:36:32.024Z,4.10
2022-11-27T02:41:49.708Z,4.40
2022-11-27T02:46:55.289Z,3.58
2022-11-27T02:52:01.360Z,4.00
2022-11-27T02:57:06.739Z,5.05
2022-11-27T03:02:15.342Z,6.13
2022-11-27T03:07:27.077Z,9.60
2022-11-27T03:12:30.668Z,7.00
2022-11-27T03:17:53.205Z,3.65
2022-11-27T03:22:57.976Z,9.15
2022-11-27T03:28:08.275Z,9.25
2022-11-27T03:33:12.115Z,10.20
2022-11-27T03:38:16.010Z,10.75
2022-11-27T03:43:24.998Z,11.45
2022-11-27T03:48:30.998Z,10.80
2022-11-27T03:53:40.608Z,13.95
2022-11-27T03:58:49.997Z,11.02
2022-11-27T04:03:54.004Z,7.90
2022-11-27T04:08:57.508Z,20.02
2022-11-27T04:14:00.872Z,12.90
2022-11-27T04:24:07.794Z,9.95
2022-11-27T04:29:11.263Z,12.73
2022-11-27T04:34:14.611Z,8.00
2022-11-27T04:49:23.846Z,16.20
2022-11-27T04:54:27.281Z,12.30
2022-11-27T04:59:30.732Z,13.50
2022-11-27T05:04:33.946Z,22.15
2022-11-27T05:09:37.273Z,18.07
2022-11-27T05:14:41.359Z,11.65
2022-11-27T05:19:45.999Z,12.57
2022-11-27T05:24:50.291Z,9.50
2022-11-27T05:29:53.485Z,6.57
2022-11-27T05:40:00.527Z,14.10
2022-11-27T05:45:06.880Z,18.08
2022-11-27T05:50:10.610Z,12.93
2022-11-27T05:55:14.130Z,8.63
2022-11-27T06:00:18.617Z,15.45
2022-11-27T06:05:21.872Z,10.32
2022-11-27T06:15:28.753Z,11.90
2022-11-27T06:20:32.421Z,8.70
2022-11-27T06:25:36.093Z,14.13
2022-11-27T06:30:39.398Z,10.48
2022-11-27T06:40:45.459Z,9.00
2022-11-27T06:45:56.766Z,11.80
2022-11-27T06:51:04.896Z,11.02
2022-11-27T06:56:15.272Z,12.10
2022-11-27T07:01:20.086Z,7.85
2022-11-27T07:06:28.924Z,11.23
2022-11-27T07:11:33.129Z,11.05
2022-11-27T07:16:37.440Z,7.45
2022-11-27T07:21:40.910Z,10.60
2022-11-27T07:26:44.433Z,8.10
2022-11-27T07:31:47.964Z,10.00
2022-11-27T07:36:52.813Z,14.35
2022-11-27T07:42:00.028Z,10.25
2022-11-27T07:47:06.284Z,9.90
2022-11-27T07:52:09.535Z,11.85
2022-11-27T07:57:12.822Z,8.20
2022-11-27T08:02:16.545Z,13.68
2022-11-27T08:07:20.080Z,10.65
2022-11-27T08:12:24.640Z,9.20
2022-11-27T08:17:28.204Z,12.02
2022-11-27T08:22:31.620Z,14.10
2022-11-27T08:27:34.930Z,7.78
2022-11-27T08:32:41.674Z,6.88
2022-11-27T08:37:47.041Z,6.50
2022-11-27T08:42:50.607Z,6.95
2022-11-27T08:47:55.093Z,6.65
2022-11-27T08:52:58.570Z,9.32
2022-11-27T08:58:02.259Z,8.55
2022-11-27T09:03:06.402Z,7.05
2022-11-27T09:08:09.746Z,7.00
2022-11-27T09:13:12.936Z,6.78
2022-11-27T09:18:16.264Z,6.85
2022-11-27T09:23:20.790Z,5.60
2022-11-27T09:28:28.207Z,6.10
2022-11-27T09:33:38.588Z,6.85
2022-11-27T09:38:42.213Z,6.93
2022-11-27T09:43:55.236Z,7.70
2022-11-27T09:49:00.958Z,8.82
2022-11-27T09:54:27.180Z,6.38
2022-11-27T09:59:45.690Z,10.65
2022-11-27T10:05:12.942Z,5.45
2022-11-27T10:10:18.098Z,9.63
2022-11-27T10:15:37.593Z,6.20
2022-11-27T10:20:43.327Z,8.15
2022-11-27T10:25:55.128Z,10.35
2022-11-27T10:31:12.928Z,8.80
2022-11-27T10:36:24.588Z,9.40
2022-11-27T10:42:03.254Z,8.57
2022-11-27T10:47:10.875Z,8.43
2022-11-27T10:52:17.035Z,11.43
2022-11-27T10:57:47.569Z,10.30
2022-11-27T11:03:03.212Z,7.25
2022-11-27T11:08:16.556Z,12.85
2022-11-27T11:13:24.457Z,9.82
2022-11-27T11:18:41.776Z,12.07
2022-11-27T11:23:57.722Z,9.93
2022-11-27T11:29:05.212Z,10.90
2022-11-27T11:34:30.001Z,11.55
2022-11-27T11:39:45.808Z,9.73
2022-11-27T11:44:55.401Z,11.68
2022-11-27T11:49:59.305Z,14.60
2022-11-27T11:55:26.270Z,13.73
2022-11-27T12:00:58.412Z,10.27
2022-11-27T12:06:25.814Z,12.43
2022-11-27T12:11:57.930Z,13.27
2022-11-27T12:17:21.580Z,8.50
2022-11-27T12:22:41.200Z,15.77
2022-11-27T12:28:02.979Z,15.45
2022-11-27T12:33:24.176Z,13.95
2022-11-27T12:39:05.665Z,19.95
2022-11-27T12:44:22.935Z,12.00
2022-11-27T12:49:43.973Z,10.32
2022-11-27T12:54:58.192Z,13.45
2022-11-27T13:00:24.980Z,19.40
2022-11-27T13:05:42.109Z,10.95
2022-11-27T13:10:55.979Z,11.57
2022-11-27T13:16:10.405Z,12.52
2022-11-27T13:21:18.853Z,12.07
2022-11-27T13:26:35.429Z,12.43
2022-11-27T13:31:39.363Z,13.30
2022-11-27T13:36:46.836Z,9.75
2022-11-27T13:42:11.757Z,13.82
2022-11-27T13:47:19.611Z,10.70
2022-11-27T13:52:23.294Z,13.05
2022-11-27T13:57:28.355Z,10.15
2022-11-27T14:02:47.413Z,13.32
2022-11-27T14:07:56.433Z,13.15
2022-11-27T14:13:04.038Z,13.90
2022-11-27T14:18:21.223Z,10.15
2022-11-27T14:23:50.270Z,11.90
2022-11-27T14:28:56.467Z,7.60
2022-11-27T14:34:14.857Z,11.88
2022-11-27T14:39:30.180Z,11.60
2022-11-27T14:44:34.076Z,12.38
2022-11-27T14:49:37.512Z,13.90
2022-11-27T14:54:42.396Z,12.98
2022-11-27T14:59:45.762Z,10.70
2022-11-27T15:04:49.211Z,7.80
2022-11-27T15:09:59.221Z,12.95
2022-11-27T15:15:09.993Z,10.68
2022-11-27T15:20:23.883Z,12.02
2022-11-27T15:25:40.198Z,10.55
2022-11-27T15:30:46.922Z,13.75
2022-11-27T15:35:53.900Z,12.07
2022-11-27T15:41:00.576Z,9.18
2022-11-27T15:46:07.414Z,12.13
2022-11-27T15:51:10.772Z,10.77
2022-11-27T15:56:14.793Z,11.63
2022-11-27T16:01:18.511Z,12.02
2022-11-27T16:06:22.318Z,9.73
2022-11-27T16:11:26.940Z,8.00
2022-11-27T16:16:30.512Z,11.00
2022-11-27T16:21:35.448Z,12.13
2022-11-27T16:26:39.083Z,9.10
2022-11-27T16:31:42.473Z,8.15
2022-11-27T16:36:46.518Z,12.32
2022-11-27T16:41:51.471Z,10.82
2022-11-27T16:46:56.417Z,9.77
2022-11-27T16:52:00.346Z,11.65
2022-11-27T16:57:05.004Z,6.15
2022-11-27T17:02:10.312Z,6.20
2022-11-27T17:07:13.954Z,10.00
2022-11-27T17:12:17.500Z,6.38
2022-11-27T17:17:21.123Z,8.93
2022-11-27T17:22:24.562Z,6.88
2022-11-27T17:27:29.013Z,8.43
2022-11-27T17:32:32.339Z,10.65
2022-11-27T17:37:35.683Z,9.48
2022-11-27T17:42:39.082Z,8.25
2022-11-27T17:47:42.535Z,4.50
2022-11-27T17:52:46.133Z,7.60
2022-11-27T17:57:49.494Z,4.80
2022-11-27T18:02:54.146Z,6.40
2022-11-27T18:07:59.434Z,10.52
2022-11-27T18:16:45.143Z,9.20
2022-11-27T18:21:48.665Z,6.07
2022-11-27T18:27:09.147Z,6.32
2022-11-27T18:32:14.945Z,7.93
2022-11-27T18:37:21.090Z,10.10
2022-11-27T18:42:25.559Z,5.75
2022-11-27T18:47:30.613Z,6.40
2022-11-27T18:52:34.147Z,5.50
2022-11-27T18:57:38.614Z,7.88
2022-11-27T19:02:42.279Z,6.00
2022-11-27T19:07:48.239Z,5.38
2022-11-27T19:12:51.634Z,5.97
2022-11-27T19:17:56.644Z,10.65
2022-11-27T19:23:00.231Z,5.43
2022-11-27T19:28:11.366Z,7.47
2022-11-27T19:33:14.657Z,10.15
2022-11-27T19:38:18.327Z,5.38
2022-11-27T19:43:23.311Z,5.40
2022-11-27T19:48:26.650Z,5.35
2022-11-27T19:53:30.231Z,4.72
2022-11-27T19:58:34.240Z,7.43
2022-11-27T20:03:38.541Z,5.40
2022-11-27T20:08:45.696Z,5.78
2022-11-27T20:13:49.705Z,6.18
2022-11-27T20:18:54.421Z,4.65
2022-11-27T20:24:00.213Z,7.43
2022-11-27T20:29:04.653Z,9.50
2022-11-27T20:34:15.261Z,8.05
2022-11-27T20:39:21.824Z,4.07
2022-11-27T20:44:26.802Z,6.50
2022-11-27T20:49:30.287Z,4.70
2022-11-27T20:54:36.310Z,7.93
2022-11-27T20:59:43.472Z,4.72
2022-11-27T21:04:47.589Z,8.23
2022-11-27T21:09:52.150Z,10.90
2022-11-27T21:14:55.663Z,2.50
2022-11-27T21:19:59.916Z,3.38
2022-11-27T21:25:03.511Z,4.57
2022-11-27T21:30:07.860Z,5.00
2022-11-27T21:35:11.340Z,4.68
2022-11-27T21:40:16.787Z,4.07
2022-11-27T21:45:20.095Z,5.07
2022-11-27T21:50:24.570Z,2.35
2022-11-27T21:55:30.443Z,4.57
2022-11-27T22:00:34.068Z,3.40
2022-11-27T22:05:37.535Z,4.10
2022-11-27T22:10:42.133Z,3.92
2022-11-27T22:15:45.846Z,5.57
2022-11-27T22:20:50.462Z,7.55
2022-11-27T22:25:53.805Z,4.68
2022-11-27T22:31:03.588Z,2.97
2022-11-27T22:36:28.782Z,6.93
2022-11-27T22:41:36.647Z,6.03
2022-11-27T22:46:42.819Z,3.53
2022-11-27T22:51:47.335Z,3.13
2022-11-27T22:56:51.857Z,6.57
2022-11-27T23:01:56.589Z,4.28
2022-11-27T23:07:01.098Z,3.50
2022-11-27T23:12:05.235Z,3.50
2022-11-27T23:17:08.809Z,4.90
2022-11-27T23:22:12.133Z,7.35
2022-11-27T23:27:15.470Z,6.22
2022-11-27T23:32:18.911Z,4.97
2022-11-27T23:37:22.189Z,4.80
2022-11-27T23:42:25.529Z,5.78
2022-11-27T23:47:28.902Z,4.65
2022-11-27T23:52:33.223Z,3.85
2022-11-27T23:57:36.473Z,8.70
